KONL/ONL METAR and TAF weather

Enter ICAO airport designator
Station Type Date Time Source
KONL METAR 2020/09/22 16:55 UTC NOAA

KONL 221655Z AUTO 20005KT 10SM CLR 26/11 A3005 RMK AO2 T02560105


Station Type Date Time Source
KONL Decoded METAR 2020/09/22 16:55 UTC NOAA

O'Neill / Baker Field, NE, United States (KONL) 42-28N 098-41W
Sep 22, 2020 - 12:55 PM EDT / 2020.09.22 1655 UTC
Wind: from the SSW (200 degrees) at 6 MPH (5 KT):0
Visibility: 10 mile(s):0
Sky conditions: clear
Temperature: 78.1 F (25.6 C)
Dew Point: 50.9 F (10.5 C)
Relative Humidity: 38%
Pressure (altimeter): 30.05 in. Hg (1017 hPa)
ob: KONL 221655Z AUTO 20005KT 10SM CLR 26/11 A3005 RMK AO2 T02560105
cycle: 17

Station Type Date Time Source
KONL TAF UTC NOAA

Error!

Example: see airport list